createdAt,value
2019-03-22T00:01:42.614Z,102964.55
2019-03-22T00:04:12.398Z,102966.98
2019-03-22T00:06:42.128Z,102963.66
2019-03-22T00:09:11.857Z,102957.97
2019-03-22T00:11:41.583Z,102955.73
2019-03-22T00:14:11.302Z,102959.72
2019-03-22T00:16:41.025Z,102959.72
2019-03-22T00:19:10.737Z,102960.20
2019-03-22T00:21:40.478Z,102958.70
2019-03-22T00:24:10.203Z,102958.05
2019-03-22T00:26:40.009Z,102947.84
2019-03-22T00:29:09.708Z,102946.06
2019-03-22T00:31:39.382Z,102952.28
2019-03-22T00:34:09.129Z,102949.22
2019-03-22T00:36:38.808Z,102945.00
2019-03-22T00:39:08.504Z,102947.75
2019-03-22T00:41:38.261Z,102947.34
2019-03-22T00:44:07.929Z,102950.84
2019-03-22T00:46:37.849Z,102954.10
2019-03-22T00:49:07.539Z,102950.08
2019-03-22T00:51:37.263Z,102953.14
2019-03-22T00:54:07.004Z,102955.41
2019-03-22T00:56:36.772Z,102955.00
2019-03-22T00:59:06.584Z,102956.78
2019-03-22T01:01:36.324Z,102952.69
2019-03-22T01:04:06.116Z,102951.08
2019-03-22T01:06:35.826Z,102947.38
2019-03-22T01:09:07.099Z,102943.53
2019-03-22T01:11:37.267Z,102939.20
2019-03-22T01:14:06.993Z,102943.53
2019-03-22T01:16:36.707Z,102940.84
2019-03-22T01:19:06.722Z,102940.27
2019-03-22T01:21:36.481Z,102941.40
2019-03-22T01:24:06.164Z,102936.97
2019-03-22T01:26:35.882Z,102931.64
2019-03-22T01:29:06.325Z,102939.03
2019-03-22T01:31:36.173Z,102937.31
2019-03-22T01:34:06.091Z,102938.48
2019-03-22T01:36:35.805Z,102944.69
2019-03-22T01:39:07.090Z,102935.66
2019-03-22T01:41:36.815Z,102941.16
2019-03-22T01:44:06.559Z,102940.98
2019-03-22T01:46:36.255Z,102938.31
2019-03-22T01:49:06.223Z,102942.56
2019-03-22T01:51:35.945Z,102945.66
2019-03-22T01:54:05.676Z,102941.56
2019-03-22T01:56:35.407Z,102944.83
2019-03-22T01:59:05.108Z,102941.87
2019-03-22T02:01:34.794Z,102945.72
2019-03-22T02:04:04.511Z,102944.31
2019-03-22T02:06:34.223Z,102935.56
2019-03-22T02:09:04.870Z,102940.71
2019-03-22T02:11:34.582Z,102936.01
2019-03-22T02:14:04.279Z,102943.42
2019-03-22T02:16:34.048Z,102934.87
2019-03-22T02:19:03.760Z,102930.23
2019-03-22T02:21:34.074Z,102930.41
2019-03-22T02:24:03.753Z,102932.20
2019-03-22T02:26:33.471Z,102936.73
2019-03-22T02:29:03.791Z,102927.84
2019-03-22T02:31:33.492Z,102923.95
2019-03-22T02:34:03.250Z,102915.38
2019-03-22T02:36:33.033Z,102914.55
2019-03-22T02:39:02.783Z,102910.27
2019-03-22T02:41:32.519Z,102909.75
2019-03-22T02:44:02.322Z,102904.22
2019-03-22T02:46:32.112Z,102904.53
2019-03-22T02:49:01.908Z,102893.00
2019-03-22T02:51:31.602Z,102891.55
2019-03-22T02:54:02.612Z,102886.03
2019-03-22T02:56:32.376Z,102892.69
2019-03-22T02:59:02.070Z,102891.73
2019-03-22T03:01:32.002Z,102888.84
2019-03-22T03:04:02.205Z,102881.02
2019-03-22T03:06:31.941Z,102876.28
2019-03-22T03:09:01.618Z,102881.77
2019-03-22T03:11:31.317Z,102874.02
2019-03-22T03:14:02.474Z,102874.42
2019-03-22T03:16:32.412Z,102874.05
2019-03-22T03:19:02.112Z,102877.41
2019-03-22T03:21:31.804Z,102875.52
2019-03-22T03:24:02.548Z,102876.90
2019-03-22T03:26:32.233Z,102886.51
2019-03-22T03:29:03.602Z,102876.80
2019-03-22T03:31:34.145Z,102875.12
2019-03-22T03:34:03.893Z,102879.98
2019-03-22T03:36:35.069Z,102870.17
2019-03-22T03:39:06.727Z,102875.38
2019-03-22T03:41:36.489Z,102863.75
2019-03-22T03:44:06.265Z,102861.05
2019-03-22T03:46:35.992Z,102859.84
2019-03-22T03:49:06.025Z,102854.11
2019-03-22T03:51:35.727Z,102852.02
2019-03-22T03:54:05.424Z,102853.90
2019-03-22T03:56:35.147Z,102858.13
2019-03-22T03:59:07.589Z,102854.18
2019-03-22T04:01:37.351Z,102849.00
2019-03-22T04:04:07.039Z,102845.63
2019-03-22T04:06:36.710Z,102850.88
2019-03-22T04:09:08.708Z,102847.86
2019-03-22T04:11:38.400Z,102843.92
2019-03-22T04:14:08.219Z,102842.92
2019-03-22T04:16:38.040Z,102839.22
2019-03-22T04:19:07.855Z,102832.77
2019-03-22T04:21:37.644Z,102828.03
2019-03-22T04:24:07.326Z,102826.34
2019-03-22T04:26:37.047Z,102822.78
2019-03-22T04:29:08.297Z,102825.84
2019-03-22T04:31:38.671Z,102824.09
2019-03-22T04:34:08.360Z,102826.42
2019-03-22T04:36:38.044Z,102827.00
2019-03-22T04:39:08.826Z,102827.55
2019-03-22T04:41:38.549Z,102825.30
2019-03-22T04:44:08.308Z,102825.73
2019-03-22T04:46:38.593Z,102821.41
2019-03-22T04:49:08.393Z,102818.74
2019-03-22T04:51:38.230Z,102827.90
2019-03-22T04:54:09.757Z,102829.17
2019-03-22T04:56:40.603Z,102820.91
2019-03-22T04:59:19.159Z,102826.56
2019-03-22T05:01:45.828Z,102837.60
2019-03-22T05:04:15.809Z,102837.37
2019-03-22T05:06:46.028Z,102834.55
2019-03-22T05:09:16.419Z,102839.48
2019-03-22T05:11:47.578Z,102846.75
2019-03-22T05:14:18.311Z,102850.57
2019-03-22T05:16:50.321Z,102851.05
2019-03-22T05:19:21.227Z,102853.95
2019-03-22T05:21:51.610Z,102852.55
2019-03-22T05:24:22.141Z,102857.37
2019-03-22T05:26:52.015Z,102866.15
2019-03-22T05:29:30.434Z,102860.52
2019-03-22T05:32:11.855Z,102849.23
2019-03-22T05:34:41.573Z,102855.34
2019-03-22T05:37:11.303Z,102853.12
2019-03-22T05:39:44.036Z,102851.30
2019-03-22T05:42:13.732Z,102846.50
2019-03-22T05:44:43.419Z,102852.03
2019-03-22T05:47:13.363Z,102846.79
2019-03-22T05:49:43.049Z,102859.47
2019-03-22T05:52:12.952Z,102860.92
2019-03-22T05:54:42.695Z,102872.71
2019-03-22T05:57:13.521Z,102872.33
2019-03-22T05:59:43.672Z,102874.78
2019-03-22T06:02:13.365Z,102879.87
2019-03-22T06:04:43.124Z,102881.46
2019-03-22T06:07:12.903Z,102883.78
2019-03-22T06:09:42.608Z,102887.23
2019-03-22T06:12:12.366Z,102890.48
2019-03-22T06:14:42.132Z,102888.20
2019-03-22T06:17:11.855Z,102885.91
2019-03-22T06:19:41.560Z,102877.36
2019-03-22T06:22:11.446Z,102883.63
2019-03-22T06:24:41.133Z,102883.12
2019-03-22T06:27:10.932Z,102883.50
2019-03-22T06:29:40.798Z,102883.95
2019-03-22T06:32:10.510Z,102881.08
2019-03-22T06:34:40.242Z,102884.19
2019-03-22T06:37:09.936Z,102887.63
2019-03-22T06:39:39.614Z,102891.09
2019-03-22T06:42:09.347Z,102890.95
2019-03-22T06:44:39.089Z,102881.52
2019-03-22T06:47:10.967Z,102886.80
2019-03-22T06:49:40.311Z,102893.16
2019-03-22T06:52:10.033Z,102886.20
2019-03-22T06:54:39.800Z,102888.74
2019-03-22T06:57:09.482Z,102886.55
2019-03-22T06:59:39.301Z,102894.56
2019-03-22T07:02:09.044Z,102892.88
2019-03-22T07:04:38.866Z,102892.20
2019-03-22T07:07:08.574Z,102893.96
2019-03-22T07:09:38.262Z,102894.88
2019-03-22T07:12:08.122Z,102885.12
2019-03-22T07:14:37.843Z,102886.94
2019-03-22T07:17:07.533Z,102883.66
2019-03-22T07:19:37.784Z,102887.50
2019-03-22T07:22:07.496Z,102883.39
2019-03-22T07:24:37.222Z,102881.88
2019-03-22T07:27:06.961Z,102870.27
2019-03-22T07:29:36.687Z,102868.59
2019-03-22T07:32:06.376Z,102871.99
2019-03-22T07:34:36.389Z,102865.27
2019-03-22T07:37:06.148Z,102866.50
2019-03-22T07:39:35.864Z,102865.41
2019-03-22T07:42:05.665Z,102863.58
2019-03-22T07:44:35.398Z,102856.16
2019-03-22T07:47:05.073Z,102859.30
2019-03-22T07:49:34.909Z,102859.22
2019-03-22T07:52:04.785Z,102854.92
2019-03-22T07:54:34.492Z,102863.66
2019-03-22T07:57:04.178Z,102863.92
2019-03-22T07:59:33.896Z,102865.30
2019-03-22T08:02:03.596Z,102867.27
2019-03-22T08:04:33.348Z,102861.20
2019-03-22T08:07:03.081Z,102857.77
2019-03-22T08:09:32.757Z,102852.09
2019-03-22T08:12:02.691Z,102853.23
2019-03-22T08:14:32.385Z,102849.79
2019-03-22T08:17:02.238Z,102858.85
2019-03-22T08:19:31.875Z,102856.57
2019-03-22T08:22:02.990Z,102852.77
2019-03-22T08:24:32.717Z,102850.41
2019-03-22T08:27:02.500Z,102844.08
2019-03-22T08:29:32.408Z,102836.41
2019-03-22T08:32:03.680Z,102833.45
2019-03-22T08:34:33.494Z,102839.97
2019-03-22T08:37:03.215Z,102835.55
2019-03-22T08:39:32.889Z,102835.17
2019-03-22T08:42:02.983Z,102835.83
2019-03-22T08:44:32.734Z,102830.78
2019-03-22T08:47:02.496Z,102833.69
2019-03-22T08:49:32.349Z,102838.80
2019-03-22T08:52:02.203Z,102837.53
2019-03-22T08:54:31.889Z,102834.27
2019-03-22T08:57:02.221Z,102831.82
2019-03-22T08:59:31.931Z,102830.12
2019-03-22T09:02:01.600Z,102826.16
2019-03-22T09:04:31.367Z,102826.73
2019-03-22T09:07:01.103Z,102823.66
2019-03-22T09:09:40.925Z,102817.48
2019-03-22T09:12:02.273Z,102815.83
2019-03-22T09:14:32.008Z,102814.55
2019-03-22T09:17:01.725Z,102811.16
2019-03-22T09:19:31.422Z,102808.33
2019-03-22T09:22:01.265Z,102804.17
2019-03-22T09:24:39.122Z,102803.61
2019-03-22T09:27:03.110Z,102801.27
2019-03-22T09:29:32.844Z,102796.66
2019-03-22T09:32:03.673Z,102799.69
2019-03-22T09:34:34.298Z,102797.50
2019-03-22T09:37:04.123Z,102797.25
2019-03-22T09:39:33.861Z,102798.58
2019-03-22T09:42:03.657Z,102794.86
2019-03-22T09:44:42.869Z,102787.50
2019-03-22T09:47:04.806Z,102786.26
2019-03-22T09:49:34.651Z,102783.02
2019-03-22T09:52:04.382Z,102779.58
2019-03-22T09:54:34.120Z,102766.94
2019-03-22T09:57:03.877Z,102769.84
2019-03-22T09:59:33.628Z,102766.39
2019-03-22T10:02:03.344Z,102764.12
2019-03-22T10:04:33.024Z,102760.90
2019-03-22T10:07:02.812Z,102762.34
2019-03-22T10:09:32.544Z,102759.80
2019-03-22T10:12:03.319Z,102757.53
2019-03-22T10:14:33.038Z,102753.83
2019-03-22T10:17:02.785Z,102753.04
2019-03-22T10:19:32.493Z,102750.98
2019-03-22T10:22:04.064Z,102743.84
2019-03-22T10:24:33.893Z,102738.51
2019-03-22T10:27:05.214Z,102739.55
2019-03-22T10:29:35.207Z,102729.95
2019-03-22T10:32:05.016Z,102730.17
2019-03-22T10:34:35.773Z,102726.47
2019-03-22T10:37:05.542Z,102716.12
2019-03-22T10:39:35.313Z,102721.34
2019-03-22T10:42:04.992Z,102721.13
2019-03-22T10:44:34.695Z,102720.60
2019-03-22T10:47:04.435Z,102716.81
2019-03-22T10:49:34.232Z,102713.26
2019-03-22T10:52:04.709Z,102702.69
2019-03-22T10:54:34.471Z,102696.84
2019-03-22T10:57:04.486Z,102695.80
2019-03-22T10:59:34.268Z,102694.17
2019-03-22T11:02:07.557Z,102694.52
2019-03-22T11:04:35.692Z,102686.14
2019-03-22T11:07:05.775Z,102683.95
2019-03-22T11:09:35.607Z,102686.63
2019-03-22T11:12:12.141Z,102681.58
2019-03-22T11:14:36.977Z,102676.73
2019-03-22T11:19:47.212Z,102662.34
2019-03-22T11:22:16.984Z,102658.48
2019-03-22T11:24:46.762Z,102661.63
2019-03-22T11:27:16.556Z,102647.11
2019-03-22T11:29:46.258Z,102648.33
2019-03-22T11:32:16.017Z,102637.70
2019-03-22T11:34:45.740Z,102627.86
2019-03-22T11:37:15.651Z,102635.52
2019-03-22T11:39:46.259Z,102627.41
2019-03-22T11:42:15.943Z,102625.30
2019-03-22T11:44:45.661Z,102625.88
2019-03-22T11:47:15.364Z,102619.03
2019-03-22T11:49:45.199Z,102619.48
2019-03-22T11:52:14.905Z,102611.22
2019-03-22T11:54:44.640Z,102609.52
2019-03-22T11:57:14.361Z,102601.35
2019-03-22T11:59:44.215Z,102606.01
2019-03-22T12:02:22.200Z,102607.70
2019-03-22T12:04:45.511Z,102602.65
2019-03-22T12:07:15.233Z,102601.86
2019-03-22T12:09:44.969Z,102594.66
2019-03-22T12:12:14.656Z,102595.84
2019-03-22T12:14:44.356Z,102588.77
2019-03-22T12:17:14.117Z,102587.03
2019-03-22T12:19:43.937Z,102582.52
2019-03-22T12:22:13.712Z,102574.78
2019-03-22T12:24:43.511Z,102569.58
2019-03-22T12:27:13.211Z,102570.55
2019-03-22T12:29:42.920Z,102570.16
2019-03-22T12:32:12.855Z,102563.46
2019-03-22T12:34:42.568Z,102566.33
2019-03-22T12:37:12.323Z,102558.95
2019-03-22T12:39:42.674Z,102557.35
2019-03-22T12:42:12.409Z,102546.28
2019-03-22T12:44:42.205Z,102543.87
2019-03-22T12:47:11.939Z,102541.39
2019-03-22T12:49:41.645Z,102535.17
2019-03-22T12:52:11.345Z,102533.15
2019-03-22T12:54:41.085Z,102528.55
2019-03-22T12:57:10.779Z,102530.89
2019-03-22T12:59:40.507Z,102525.92
2019-03-22T13:02:10.207Z,102524.73
2019-03-22T13:04:40.056Z,102517.92
2019-03-22T13:07:09.996Z,102517.98
2019-03-22T13:09:39.721Z,102506.15
2019-03-22T13:12:09.459Z,102504.05
2019-03-22T13:14:39.236Z,102497.91
2019-03-22T13:17:08.976Z,102497.45
2019-03-22T13:19:38.702Z,102495.34
2019-03-22T13:22:08.475Z,102485.50
2019-03-22T13:24:38.398Z,102483.63
2019-03-22T13:27:08.487Z,102484.78
2019-03-22T13:29:38.426Z,102480.39
2019-03-22T13:32:08.132Z,102476.84
2019-03-22T13:34:37.860Z,102476.70
2019-03-22T13:37:07.680Z,102467.81
2019-03-22T13:39:37.392Z,102462.88
2019-03-22T13:42:07.096Z,102461.84
2019-03-22T13:44:36.925Z,102460.40
2019-03-22T13:47:06.792Z,102454.19
2019-03-22T13:49:36.504Z,102463.11
2019-03-22T13:52:06.199Z,102456.80
2019-03-22T13:54:35.940Z,102453.18
2019-03-22T13:57:05.686Z,102453.83
2019-03-22T13:59:35.395Z,102450.00
2019-03-22T14:02:06.172Z,102444.35
2019-03-22T14:04:35.913Z,102443.92
2019-03-22T14:07:05.653Z,102441.86
2019-03-22T14:09:35.372Z,102437.07
2019-03-22T14:12:05.090Z,102432.02
2019-03-22T14:14:34.878Z,102435.39
2019-03-22T14:17:04.746Z,102444.02
2019-03-22T14:19:34.454Z,102434.77
2019-03-22T14:22:06.265Z,102439.67
2019-03-22T14:24:36.105Z,102432.91
2019-03-22T14:27:05.828Z,102426.69
2019-03-22T14:29:35.551Z,102426.27
2019-03-22T14:32:05.304Z,102420.88
2019-03-22T14:34:35.005Z,102413.20
2019-03-22T14:37:04.810Z,102414.97
2019-03-22T14:39:34.666Z,102418.50
2019-03-22T14:42:04.771Z,102409.42
2019-03-22T14:44:35.852Z,102409.73
2019-03-22T14:47:06.002Z,102402.54
2019-03-22T14:49:35.878Z,102397.34
2019-03-22T14:52:05.630Z,102403.39
2019-03-22T14:54:35.335Z,102399.09
2019-03-22T14:57:05.038Z,102387.59
2019-03-22T14:59:34.827Z,102381.25
2019-03-22T15:02:04.680Z,102383.17
2019-03-22T15:04:34.481Z,102377.30
2019-03-22T15:07:04.269Z,102379.14
2019-03-22T15:09:34.015Z,102376.11
2019-03-22T15:12:03.795Z,102370.92
2019-03-22T15:14:44.879Z,102372.83
2019-03-22T15:17:39.693Z,102371.16
2019-03-22T15:20:26.633Z,102368.71
2019-03-22T15:23:15.624Z,102354.76
2019-03-22T15:26:16.493Z,102359.33
2019-03-22T15:29:04.349Z,102351.54
2019-03-22T15:32:14.155Z,102344.56
2019-03-22T15:35:11.693Z,102342.45
2019-03-22T15:38:04.844Z,102341.76
2019-03-22T15:40:40.361Z,102341.27
2019-03-22T15:43:19.646Z,102335.77
2019-03-22T15:45:49.398Z,102338.45
2019-03-22T15:48:19.134Z,102331.33
2019-03-22T15:50:48.894Z,102332.56
2019-03-22T15:53:18.632Z,102324.32
2019-03-22T15:55:48.373Z,102326.52
2019-03-22T15:58:25.693Z,102319.47
2019-03-22T16:00:55.429Z,102325.84
2019-03-22T16:03:25.287Z,102324.16
2019-03-22T16:05:55.102Z,102315.01
2019-03-22T16:08:24.813Z,102313.44
2019-03-22T16:11:03.446Z,102319.58
2019-03-22T16:13:37.356Z,102314.34
2019-03-22T16:16:07.101Z,102311.00
2019-03-22T16:18:36.844Z,102309.17
2019-03-22T16:21:06.570Z,102305.45
2019-03-22T16:23:36.299Z,102298.00
2019-03-22T16:26:18.035Z,102296.98
2019-03-22T16:28:52.993Z,102296.17
2019-03-22T16:31:22.699Z,102288.42
2019-03-22T16:33:54.722Z,102289.12
2019-03-22T16:36:23.815Z,102283.61
2019-03-22T16:38:53.543Z,102288.15
2019-03-22T16:41:23.229Z,102279.06
2019-03-22T16:43:53.247Z,102284.67
2019-03-22T16:46:22.945Z,102281.75
2019-03-22T16:48:52.763Z,102281.25
2019-03-22T16:51:22.453Z,102285.33
2019-03-22T16:53:52.185Z,102275.27
2019-03-22T16:56:21.888Z,102280.23
2019-03-22T16:58:51.630Z,102271.74
2019-03-22T17:01:21.375Z,102269.37
2019-03-22T17:03:51.337Z,102270.61
2019-03-22T17:06:21.138Z,102275.72
2019-03-22T17:08:50.962Z,102272.21
2019-03-22T17:11:20.712Z,102270.27
2019-03-22T17:13:50.426Z,102274.77
2019-03-22T17:16:20.209Z,102280.06
2019-03-22T17:18:49.941Z,102283.77
2019-03-22T17:21:19.659Z,102280.95
2019-03-22T17:23:49.382Z,102282.02
2019-03-22T17:26:19.204Z,102285.05
2019-03-22T17:28:48.950Z,102287.30
2019-03-22T17:31:18.919Z,102294.13
2019-03-22T17:33:48.641Z,102283.94
2019-03-22T17:36:18.383Z,102284.64
2019-03-22T17:38:48.151Z,102286.07
2019-03-22T17:41:39.423Z,102289.95
2019-03-22T17:44:09.160Z,102286.39
2019-03-22T17:46:38.859Z,102293.09
2019-03-22T17:49:08.597Z,102294.75
2019-03-22T17:51:38.351Z,102293.41
2019-03-22T17:54:08.197Z,102298.52
2019-03-22T17:56:37.936Z,102292.72
2019-03-22T17:59:07.666Z,102295.75
2019-03-22T18:01:37.359Z,102298.30
2019-03-22T18:04:07.147Z,102290.79
2019-03-22T18:06:36.844Z,102294.55
2019-03-22T18:09:08.112Z,102297.26
2019-03-22T18:11:37.811Z,102299.56
2019-03-22T18:14:07.543Z,102303.66
2019-03-22T18:16:37.325Z,102298.95
2019-03-22T18:19:09.362Z,102297.38
2019-03-22T18:21:39.806Z,102300.65
2019-03-22T18:24:09.600Z,102302.91
2019-03-22T18:26:40.401Z,102298.56
2019-03-22T18:29:10.180Z,102301.94
2019-03-22T18:31:40.372Z,102304.78
2019-03-22T18:34:10.108Z,102301.60
2019-03-22T18:36:39.863Z,102315.91
2019-03-22T18:39:10.284Z,102317.23
2019-03-22T18:41:40.010Z,102313.09
2019-03-22T18:44:09.750Z,102313.25
2019-03-22T18:46:39.630Z,102317.38
2019-03-22T18:49:09.455Z,102316.31
2019-03-22T18:51:39.399Z,102320.49
2019-03-22T18:54:09.165Z,102321.45
2019-03-22T18:56:38.983Z,102327.56
2019-03-22T18:59:08.817Z,102327.43
2019-03-22T19:01:38.780Z,102325.85
2019-03-22T19:04:08.579Z,102331.23
2019-03-22T19:06:38.348Z,102326.97
2019-03-22T19:09:09.107Z,102326.81
2019-03-22T19:11:38.909Z,102327.16
2019-03-22T19:14:08.696Z,102322.84
2019-03-22T19:16:38.478Z,102325.58
2019-03-22T19:19:08.187Z,102330.83
2019-03-22T19:21:38.049Z,102333.52
2019-03-22T19:24:07.778Z,102323.93
2019-03-22T19:26:37.677Z,102331.56
2019-03-22T19:29:07.460Z,102331.92
2019-03-22T19:31:38.671Z,102330.72
2019-03-22T19:34:08.733Z,102330.38
2019-03-22T19:36:38.521Z,102326.32
2019-03-22T19:39:08.559Z,102322.87
2019-03-22T19:41:38.759Z,102320.91
2019-03-22T19:44:09.654Z,102312.28
2019-03-22T19:46:39.526Z,102312.63
2019-03-22T19:49:09.345Z,102311.69
2019-03-22T19:51:39.237Z,102315.29
2019-03-22T19:54:09.185Z,102319.88
2019-03-22T19:56:38.992Z,102323.06
2019-03-22T19:59:08.963Z,102320.64
2019-03-22T20:01:40.057Z,102322.90
2019-03-22T20:04:10.139Z,102320.86
2019-03-22T20:06:40.385Z,102320.69
2019-03-22T20:09:10.925Z,102319.16
2019-03-22T20:11:40.911Z,102323.44
2019-03-22T20:14:10.908Z,102328.26
2019-03-22T20:16:40.668Z,102323.28
2019-03-22T20:19:10.668Z,102323.23
2019-03-22T20:21:41.603Z,102314.64
2019-03-22T20:24:11.362Z,102317.59
2019-03-22T20:26:41.352Z,102314.44
2019-03-22T20:29:12.021Z,102314.09
2019-03-22T20:31:43.284Z,102310.91
2019-03-22T20:34:13.109Z,102307.68
2019-03-22T20:36:43.831Z,102313.09
2019-03-22T20:39:13.681Z,102313.16
2019-03-22T20:41:43.702Z,102307.77
2019-03-22T20:44:13.935Z,102308.33
2019-03-22T20:46:45.939Z,102306.34
2019-03-22T20:49:17.267Z,102304.95
2019-03-22T20:51:47.038Z,102304.15
2019-03-22T20:54:17.237Z,102306.38
2019-03-22T20:56:47.237Z,102302.79
2019-03-22T20:59:17.355Z,102306.48
2019-03-22T21:01:47.516Z,102306.14
2019-03-22T21:04:17.291Z,102307.61
2019-03-22T21:06:47.487Z,102308.17
2019-03-22T21:09:17.438Z,102312.80
2019-03-22T21:11:48.465Z,102315.50
2019-03-22T21:14:19.268Z,102307.21
2019-03-22T21:16:49.153Z,102304.91
2019-03-22T21:19:18.935Z,102304.64
2019-03-22T21:21:48.687Z,102306.40
2019-03-22T21:24:18.465Z,102307.07
2019-03-22T21:26:48.583Z,102310.19
2019-03-22T21:29:18.386Z,102307.94
2019-03-22T21:31:48.153Z,102306.98
2019-03-22T21:34:17.996Z,102308.59
2019-03-22T21:36:47.743Z,102311.70
2019-03-22T21:39:17.555Z,102313.36
2019-03-22T21:41:47.284Z,102313.06
2019-03-22T21:44:17.000Z,102308.53
2019-03-22T21:46:47.690Z,102306.72
2019-03-22T21:49:17.448Z,102308.14
2019-03-22T21:51:47.142Z,102304.80
2019-03-22T21:54:16.848Z,102309.66
2019-03-22T21:56:46.714Z,102313.71
2019-03-22T21:59:16.556Z,102309.83
2019-03-22T22:01:46.280Z,102311.48
2019-03-22T22:04:16.144Z,102309.02
2019-03-22T22:06:47.772Z,102305.14
2019-03-22T22:09:17.307Z,102303.61
2019-03-22T22:11:47.076Z,102304.27
2019-03-22T22:14:16.835Z,102306.56
2019-03-22T22:16:46.570Z,102314.23
2019-03-22T22:19:16.381Z,102308.88
2019-03-22T22:21:46.089Z,102307.52
2019-03-22T22:24:26.213Z,102308.64
2019-03-22T22:26:56.602Z,102305.33
2019-03-22T22:29:26.285Z,102305.73
2019-03-22T22:31:56.022Z,102309.86
2019-03-22T22:34:25.720Z,102300.14
2019-03-22T22:36:55.532Z,102307.86
2019-03-22T22:39:25.324Z,102307.18
2019-03-22T22:41:55.019Z,102305.31
2019-03-22T22:44:24.753Z,102304.64
2019-03-22T22:46:54.489Z,102310.98
2019-03-22T22:49:24.471Z,102317.62
2019-03-22T22:51:54.161Z,102317.45
2019-03-22T22:54:23.866Z,102312.11
2019-03-22T22:56:53.608Z,102315.52
2019-03-22T22:59:23.354Z,102320.73
2019-03-22T23:01:53.156Z,102317.95
2019-03-22T23:04:22.868Z,102319.78
2019-03-22T23:06:52.641Z,102315.59
2019-03-22T23:09:22.369Z,102318.41
2019-03-22T23:11:52.109Z,102320.14
2019-03-22T23:14:21.947Z,102315.88
2019-03-22T23:16:51.675Z,102323.78
2019-03-22T23:19:21.453Z,102332.42
2019-03-22T23:21:51.293Z,102337.43
2019-03-22T23:24:21.055Z,102344.66
2019-03-22T23:26:50.825Z,102338.84
2019-03-22T23:29:20.551Z,102352.38
2019-03-22T23:31:50.327Z,102356.74
2019-03-22T23:34:20.006Z,102362.99
2019-03-22T23:36:50.059Z,102359.64
2019-03-22T23:39:19.768Z,102356.94
2019-03-22T23:41:49.527Z,102369.89
2019-03-22T23:44:19.319Z,102374.61
2019-03-22T23:46:49.017Z,102376.36
2019-03-22T23:49:18.923Z,102380.81
2019-03-22T23:51:48.682Z,102402.36
2019-03-22T23:54:18.520Z,102403.45
2019-03-22T23:56:48.237Z,102407.84
2019-03-22T23:59:18.016Z,102410.78
